Time;durP1;ratioP1;P1;durP2;ratioP2;P2;SDS_P1;SDS_P2;PMS_P1;PMS_P2;Temp;Humidity;BMP_temperature;BMP_pressure;BME280_temperature;BME280_humidity;BME280_pressure;Samples;Min_cycle;Max_cycle;Signal;HPM_P1;HPM_P2
2022/01/16 00:00:28;;;;;;;17.48;9.77;;;;;;;-0.70;60.84;96331.41;5086135;28;20028;-75
2022/01/16 00:05:20;;;;;;;18.63;9.15;;;;;;;-0.79;60.96;96318.75;5068111;28;20026;-73
2022/01/16 00:07:45;;;;;;;20.08;10.32;;;;;;;-0.69;60.78;96301.47;5087748;28;20032;-73
2022/01/16 00:10:11;;;;;;;28.25;10.95;;;;;;;-0.88;61.11;96294.59;5085642;28;20048;-72
2022/01/16 00:12:36;;;;;;;25.42;11.38;;;;;;;-0.81;61.12;96307.44;5087718;28;20173;-72
2022/01/16 00:15:03;;;;;;;26.15;11.55;;;;;;;-0.84;60.76;96328.69;5084007;28;20028;-71
2022/01/16 00:17:34;;;;;;;37.25;13.45;;;;;;;-0.90;61.61;96338.59;5086071;28;20037;-73
2022/01/16 00:19:59;;;;;;;41.92;14.20;;;;;;;-0.78;61.57;96347.63;5086452;28;20032;-74
2022/01/16 00:22:28;;;;;;;38.38;13.68;;;;;;;-0.78;61.44;96367.84;5086016;28;20035;-74
2022/01/16 00:24:53;;;;;;;33.35;12.82;;;;;;;-0.86;61.93;96386.72;5087550;28;20028;-73
2022/01/16 00:27:19;;;;;;;25.75;11.60;;;;;;;-0.76;61.80;96394.97;5084805;28;20069;-73
2022/01/16 00:29:44;;;;;;;22.73;10.00;;;;;;;-0.68;61.37;96411.22;5087349;28;20024;-73
2022/01/16 00:32:10;;;;;;;24.58;10.40;;;;;;;-0.75;62.08;96452.84;5084879;28;20025;-72
2022/01/16 00:34:35;;;;;;;30.20;12.40;;;;;;;-0.83;62.14;96377.78;5087293;28;20028;-72
2022/01/16 00:37:00;;;;;;;24.70;11.73;;;;;;;-0.93;63.07;96312.44;5085678;28;20043;-73
2022/01/16 00:39:27;;;;;;;31.35;12.70;;;;;;;-0.82;62.69;96348.72;5086440;28;20440;-73
2022/01/16 00:41:52;;;;;;;26.33;11.57;;;;;;;-0.79;62.66;96381.97;5086909;28;20086;-72
2022/01/16 00:44:17;;;;;;;31.95;12.30;;;;;;;-0.83;62.69;96252.19;5085383;28;20028;-73
2022/01/16 00:46:43;;;;;;;34.13;13.75;;;;;;;-0.79;63.02;96243.19;5087107;28;20093;-73
2022/01/16 00:49:08;;;;;;;27.20;12.63;;;;;;;-0.78;62.98;96309.91;5085129;28;20024;-73
2022/01/16 00:51:34;;;;;;;29.88;13.60;;;;;;;-0.87;63.40;96206.75;5087371;28;20043;-73
2022/01/16 00:53:59;;;;;;;34.70;14.85;;;;;;;-0.89;63.44;96197.25;5085293;28;20486;-73
2022/01/16 00:56:25;;;;;;;27.52;12.63;;;;;;;-0.82;63.36;96224.91;5086938;28;20043;-74
2022/01/16 00:58:50;;;;;;;28.77;12.43;;;;;;;-0.78;63.12;96204.53;5086056;28;20031;-74
2022/01/16 01:01:16;;;;;;;25.33;12.13;;;;;;;-0.82;63.63;96221.44;5084472;28;20028;-74
2022/01/16 01:03:41;;;;;;;20.48;10.55;;;;;;;-0.71;63.05;96284.06;5086861;28;20020;-74
2022/01/16 01:06:07;;;;;;;20.63;10.57;;;;;;;-0.76;63.58;96297.50;5084966;28;20071;-72
2022/01/16 01:08:32;;;;;;;18.13;10.98;;;;;;;-0.75;63.42;96272.84;5085382;28;20020;-73
2022/01/16 01:10:58;;;;;;;20.70;9.85;;;;;;;-0.83;63.93;96265.38;5088745;28;20028;-73
2022/01/16 01:13:33;;;;;;;19.75;10.40;;;;;;;-0.69;63.54;96313.78;5090860;28;20057;-73
2022/01/16 01:16:03;;;;;;;19.73;9.90;;;;;;;-0.72;64.04;96303.41;5088431;28;20408;-73
2022/01/16 01:18:29;;;;;;;18.00;9.32;;;;;;;-0.61;63.73;96274.69;5089834;28;20596;-73
2022/01/16 01:20:57;;;;;;;16.80;9.25;;;;;;;-0.59;63.86;96295.69;5089414;28;20035;-73
2022/01/16 01:23:22;;;;;;;18.08;9.55;;;;;;;-0.57;64.06;96299.09;5087337;28;20499;-73
2022/01/16 01:25:48;;;;;;;17.55;9.63;;;;;;;-0.52;63.40;96278.59;5090749;28;20035;-73
2022/01/16 01:28:13;;;;;;;16.73;9.57;;;;;;;-0.47;63.26;96296.78;5087045;28;20419;-74
2022/01/16 01:30:44;;;;;;;22.38;9.95;;;;;;;-0.68;63.68;96303.19;5090381;28;20036;-73
2022/01/16 01:33:13;;;;;;;18.10;9.60;;;;;;;-0.55;63.67;96291.97;5088969;28;20028;-73
2022/01/16 01:35:39;;;;;;;15.85;9.38;;;;;;;-0.48;63.46;96295.94;5088754;28;20027;-73
2022/01/16 01:38:06;;;;;;;17.13;9.25;;;;;;;-0.45;62.94;96301.03;5090083;28;20039;-73
2022/01/16 01:40:33;;;;;;;20.00;10.68;;;;;;;-0.51;63.30;96293.47;5086993;28;20024;-72
2022/01/16 01:51:19;;;;;;;16.65;9.73;;;;;;;-0.39;62.57;96356.03;5090672;28;20039;-72
2022/01/16 01:53:45;;;;;;;18.77;9.95;;;;;;;-0.41;63.19;96344.75;5087937;28;20032;-73
2022/01/16 01:56:12;;;;;;;20.50;9.73;;;;;;;-0.36;63.12;96319.91;5090105;28;20456;-73
2022/01/16 01:58:38;;;;;;;17.65;9.52;;;;;;;-0.34;62.76;96347.88;5069627;28;20050;-73
2022/01/16 02:01:03;;;;;;;20.77;10.35;;;;;;;-0.45;63.78;96347.63;5090053;28;20032;-73
2022/01/16 02:06:03;;;;;;;19.85;11.02;;;;;;;-0.59;63.79;96333.44;5087984;28;20043;-73
2022/01/16 02:08:29;;;;;;;18.98;11.15;;;;;;;-0.56;64.16;96343.81;5089898;28;20028;-73
2022/01/16 02:10:56;;;;;;;22.85;10.93;;;;;;;-0.52;63.89;96344.50;5087767;28;20089;-73
2022/01/16 02:13:27;;;;;;;19.15;11.07;;;;;;;-0.67;64.47;96360.22;5088791;28;20482;-72
2022/01/16 02:34:34;;;;;;;20.17;10.57;;;;;;;-0.90;67.86;96332.47;5089544;28;20082;-73
2022/01/16 02:37:03;;;;;;;20.33;10.38;;;;;;;-0.90;68.17;96333.34;5087109;28;20030;-73
2022/01/16 02:39:30;;;;;;;21.95;11.27;;;;;;;-0.87;68.55;96325.28;5089308;28;20040;-73
2022/01/16 02:41:58;;;;;;;22.40;10.88;;;;;;;-0.89;68.54;96328.94;5085689;28;20478;-73
2022/01/16 02:44:33;;;;;;;24.70;10.60;;;;;;;-0.73;68.30;96321.03;5088099;28;20550;-72
2022/01/16 02:46:59;;;;;;;19.30;9.90;;;;;;;-0.58;68.29;96319.31;5088430;28;20475;-73
2022/01/16 02:49:29;;;;;;;22.45;11.40;;;;;;;-0.70;68.76;96330.53;5088120;28;20085;-73
2022/01/16 02:51:59;;;;;;;22.02;11.32;;;;;;;-0.71;69.22;96329.69;5088980;28;20071;-74
2022/01/16 02:54:26;;;;;;;22.02;11.40;;;;;;;-0.67;68.94;96322.47;5087155;28;20039;-73
2022/01/16 02:56:52;;;;;;;21.08;11.70;;;;;;;-0.61;69.00;96316.03;5087495;28;20465;-74
2022/01/16 02:59:21;;;;;;;21.02;11.70;;;;;;;-0.62;69.21;96309.91;5087377;28;20097;-73
2022/01/16 03:01:47;;;;;;;21.20;11.95;;;;;;;-0.57;68.92;96305.22;5087543;28;20032;-75
2022/01/16 03:04:12;;;;;;;23.55;12.00;;;;;;;-0.48;68.30;96314.38;5086780;28;20024;-74
2022/01/16 03:06:38;;;;;;;19.00;11.07;;;;;;;-0.46;68.37;96309.88;5087945;28;20020;-73
2022/01/16 03:09:07;;;;;;;21.08;10.98;;;;;;;-0.40;68.04;96314.81;5087267;28;20058;-75
2022/01/16 03:11:39;;;;;;;23.92;12.20;;;;;;;-0.33;67.81;96310.03;5085390;28;20031;-73
2022/01/16 03:14:18;;;;;;;21.17;11.73;;;;;;;-0.24;66.97;96307.81;5087213;28;20111;-73
2022/01/16 03:16:47;;;;;;;16.58;11.20;;;;;;;-0.26;66.77;96306.09;5086701;28;20108;-73
2022/01/16 03:22:05;;;;;;;18.38;11.55;;;;;;;-0.24;67.22;96307.81;5087194;28;20043;-74
2022/01/16 03:24:39;;;;;;;20.42;10.98;;;;;;;-0.23;67.19;96313.00;5086663;28;20025;-74
2022/01/16 03:27:15;;;;;;;22.35;12.00;;;;;;;-0.26;67.24;96321.09;5086814;28;20071;-74
2022/01/16 03:29:42;;;;;;;20.63;12.35;;;;;;;-0.28;67.29;96317.69;5085326;28;20062;-73
2022/01/16 03:32:09;;;;;;;22.10;12.50;;;;;;;-0.31;67.42;96317.84;5087916;28;20039;-76
2022/01/16 03:34:34;;;;;;;21.48;11.98;;;;;;;-0.29;67.63;96321.25;5087539;28;20504;-74
2022/01/16 03:37:00;;;;;;;23.42;12.18;;;;;;;-0.26;67.10;96327.19;5086954;28;20020;-74
2022/01/16 03:39:26;;;;;;;20.33;11.60;;;;;;;-0.23;66.92;96326.19;5088223;28;20039;-72
2022/01/16 03:41:52;;;;;;;17.95;11.07;;;;;;;-0.24;66.75;96332.38;5086308;28;20501;-72
2022/01/16 03:44:18;;;;;;;21.98;11.82;;;;;;;-0.29;66.94;96331.81;5087959;28;20046;-75
2022/01/16 03:46:44;;;;;;;20.40;11.02;;;;;;;-0.25;66.75;96328.03;5084845;28;20447;-75
2022/01/16 03:49:20;;;;;;;19.40;11.07;;;;;;;-0.16;66.41;96329.31;5069759;28;20085;-72
2022/01/16 03:51:47;;;;;;;22.55;11.52;;;;;;;-0.20;66.35;96331.28;5085599;28;20034;-73
2022/01/16 03:54:14;;;;;;;20.30;12.35;;;;;;;-0.21;66.47;96332.19;5085607;28;20024;-75
2022/01/16 03:56:40;;;;;;;19.83;11.30;;;;;;;-0.25;66.62;96338.59;5088162;28;20161;-73
2022/01/16 03:59:05;;;;;;;19.63;11.00;;;;;;;-0.23;66.57;96338.50;5084337;28;20032;-73
2022/01/16 04:01:31;;;;;;;19.15;11.05;;;;;;;-0.27;66.58;96335.19;5087824;28;20399;-73
2022/01/16 04:03:56;;;;;;;21.92;11.25;;;;;;;-0.27;66.26;96337.81;5085641;28;20068;-74
2022/01/16 04:06:22;;;;;;;22.75;11.80;;;;;;;-0.29;66.38;96339.72;5087655;28;20024;-74
2022/01/16 04:08:52;;;;;;;21.38;11.82;;;;;;;-0.27;65.76;96348.38;5084899;28;20085;-76
2022/01/16 04:11:18;;;;;;;21.05;11.93;;;;;;;-0.19;65.59;96343.50;5085929;28;20102;-73
2022/01/16 04:14:02;;;;;;;27.45;14.63;;;;;;;-0.32;64.77;96347.81;5086124;28;20036;-72
2022/01/16 04:16:27;;;;;;;30.67;15.68;;;;;;;-0.39;63.82;96349.94;5085333;28;20285;-72
2022/01/16 04:18:52;;;;;;;28.45;16.40;;;;;;;-0.48;63.70;96348.63;5086592;28;20434;-74
2022/01/16 04:21:19;;;;;;;28.35;14.73;;;;;;;-0.56;62.88;96353.47;5085422;28;20387;-73
2022/01/16 04:23:44;;;;;;;27.67;15.38;;;;;;;-0.65;63.06;96362.75;5069735;28;20158;-72
2022/01/16 04:26:10;;;;;;;29.27;15.35;;;;;;;-0.73;63.62;96367.59;5084433;28;20024;-74
2022/01/16 04:28:35;;;;;;;26.42;14.48;;;;;;;-0.76;63.07;96361.56;5086868;28;20044;-75
2022/01/16 04:31:00;;;;;;;27.10;14.90;;;;;;;-0.83;62.56;96365.47;5086969;28;20050;-73
2022/01/16 04:33:26;;;;;;;24.15;13.98;;;;;;;-0.85;62.61;96366.50;5084146;28;20028;-72
2022/01/16 04:35:51;;;;;;;27.75;13.30;;;;;;;-0.96;62.98;96375.81;5086299;28;20027;-75
2022/01/16 04:38:17;;;;;;;26.00;14.05;;;;;;;-0.99;62.51;96381.25;5084989;28;20109;-73
2022/01/16 04:43:47;;;;;;;21.73;12.02;;;;;;;-0.97;62.13;96368.00;5087499;28;20027;-73
2022/01/16 04:46:11;;;;;;;21.08;11.32;;;;;;;-1.35;61.63;96369.09;5085226;28;20509;-74
2022/01/16 04:48:37;;;;;;;17.73;9.15;;;;;;;-1.41;61.57;96376.38;5086928;28;20028;-75
2022/01/16 04:51:02;;;;;;;17.85;8.60;;;;;;;-1.55;61.59;96381.50;5083890;28;20016;-73
2022/01/16 04:53:28;;;;;;;16.17;8.82;;;;;;;-1.74;62.08;96369.25;5086900;28;20030;-74
2022/01/16 04:55:53;;;;;;;17.58;9.43;;;;;;;-1.92;63.01;96371.06;5085159;28;20021;-74
2022/01/16 04:58:21;;;;;;;19.35;9.73;;;;;;;-1.94;63.46;96365.03;5068900;28;20434;-74
2022/01/16 05:00:46;;;;;;;25.48;11.52;;;;;;;-1.90;63.07;96363.94;5085383;28;20036;-74
2022/01/16 05:03:11;;;;;;;19.17;10.05;;;;;;;-1.91;63.31;96373.63;5085451;28;20082;-72
2022/01/16 05:05:37;;;;;;;24.40;11.23;;;;;;;-1.89;63.17;96376.16;5086498;28;20061;-73
2022/01/16 05:08:02;;;;;;;22.45;10.63;;;;;;;-1.88;63.36;96372.59;5085458;28;20023;-73
2022/01/16 05:10:28;;;;;;;19.27;10.80;;;;;;;-1.93;63.81;96367.56;5085498;28;20380;-73
2022/01/16 05:12:54;;;;;;;21.65;10.55;;;;;;;-2.01;64.34;96377.63;5083494;28;20469;-74
2022/01/16 05:18:03;;;;;;;21.42;11.88;;;;;;;-1.91;64.36;96364.88;5084182;28;20106;-74
2022/01/16 05:20:28;;;;;;;26.23;12.25;;;;;;;-1.93;63.98;96367.56;5086524;28;20501;-74
2022/01/16 05:22:54;;;;;;;23.75;12.95;;;;;;;-1.97;64.25;96368.66;5086816;28;20454;-76
2022/01/16 05:25:19;;;;;;;22.30;12.55;;;;;;;-1.97;64.97;96371.28;5085310;28;20445;-73
2022/01/16 05:27:45;;;;;;;24.25;13.35;;;;;;;-2.04;65.14;96376.00;5086435;28;20047;-73
2022/01/16 05:30:11;;;;;;;30.75;14.52;;;;;;;-2.09;65.64;96378.00;5084793;28;20524;-75
2022/01/16 05:32:36;;;;;;;24.73;13.80;;;;;;;-1.93;65.20;96375.47;5085702;28;20066;-75
2022/01/16 05:35:01;;;;;;;28.95;14.90;;;;;;;-2.03;65.44;96376.84;5083650;28;20047;-73
2022/01/16 05:37:27;;;;;;;27.38;14.13;;;;;;;-2.01;65.90;96375.84;5086838;28;20073;-75
2022/01/16 05:39:53;;;;;;;28.77;15.38;;;;;;;-2.01;65.94;96377.63;5085645;28;20470;-74
2022/01/16 05:42:18;;;;;;;31.10;16.58;;;;;;;-1.99;65.70;96366.13;5084594;28;20059;-72
2022/01/16 05:44:44;;;;;;;28.42;15.85;;;;;;;-1.97;65.34;96371.28;5086431;28;20035;-74
2022/01/16 05:47:12;;;;;;;27.08;13.52;;;;;;;-1.92;65.22;96390.31;5083555;28;20237;-74
2022/01/16 05:49:41;;;;;;;24.48;13.70;;;;;;;-1.88;64.61;96381.34;5086597;28;20043;-73
2022/01/16 05:52:07;;;;;;;25.38;14.63;;;;;;;-1.92;65.37;96392.09;5084655;28;20115;-74
2022/01/16 05:54:33;;;;;;;24.83;13.68;;;;;;;-1.84;64.66;96392.56;5085287;28;20020;-73
2022/01/16 05:56:58;;;;;;;24.58;13.20;;;;;;;-1.85;64.51;96384.75;5088553;28;20158;-74
2022/01/16 05:59:23;;;;;;;24.48;13.57;;;;;;;-1.75;64.09;96393.88;5089743;28;20024;-72
2022/01/16 06:01:49;;;;;;;26.48;14.43;;;;;;;-1.90;64.64;96401.59;5089761;28;20028;-74
2022/01/16 06:04:14;;;;;;;26.33;13.60;;;;;;;-1.95;64.76;96387.81;5088815;28;20068;-72
2022/01/16 06:06:40;;;;;;;25.75;13.88;;;;;;;-2.06;65.15;96390.16;5089835;28;20042;-76
2022/01/16 06:09:05;;;;;;;28.17;14.68;;;;;;;-2.00;64.46;96397.75;5069527;28;20028;-74
2022/01/16 06:11:31;;;;;;;29.30;14.43;;;;;;;-2.07;64.76;96393.69;5089958;28;20085;-72
2022/01/16 06:13:56;;;;;;;27.52;15.00;;;;;;;-2.06;63.92;96398.03;5086060;28;20024;-74
2022/01/16 06:16:22;;;;;;;23.67;12.80;;;;;;;-2.06;64.17;96396.25;5088824;28;20035;-73
2022/01/16 06:18:47;;;;;;;20.05;11.70;;;;;;;-2.11;63.79;96392.97;5088439;28;20023;-73
2022/01/16 06:21:12;;;;;;;24.35;11.73;;;;;;;-2.07;63.94;96401.59;5088796;28;20031;-75
2022/01/16 06:23:38;;;;;;;19.45;11.10;;;;;;;-2.15;64.19;96402.81;5089747;28;20036;-73
2022/01/16 06:26:04;;;;;;;30.13;12.50;;;;;;;-2.29;65.13;96410.50;5087567;28;20028;-73
2022/01/16 06:28:31;;;;;;;29.48;12.77;;;;;;;-2.24;64.71;96417.25;5089358;28;20510;-74
2022/01/16 06:30:56;;;;;;;24.83;13.27;;;;;;;-2.29;65.16;96421.84;5085876;28;20052;-73
2022/01/16 06:33:22;;;;;;;28.98;14.13;;;;;;;-2.26;64.90;96421.72;5089841;28;20083;-74
2022/01/16 06:35:47;;;;;;;26.85;13.43;;;;;;;-2.23;64.54;96426.00;5087527;28;20032;-75
2022/01/16 06:38:12;;;;;;;25.25;12.80;;;;;;;-2.34;65.38;96430.91;5071037;28;20047;-73
2022/01/16 06:40:38;;;;;;;30.10;14.48;;;;;;;-2.24;64.90;96438.25;5087434;28;20025;-74
2022/01/16 06:43:03;;;;;;;31.13;15.05;;;;;;;-2.23;64.45;96441.75;5087808;28;20028;-73
2022/01/16 06:45:29;;;;;;;26.85;13.52;;;;;;;-2.25;65.37;96436.56;5089338;28;20020;-73
2022/01/16 06:47:55;;;;;;;24.52;12.65;;;;;;;-2.07;64.60;96431.34;5085820;28;20027;-75
2022/01/16 06:50:21;;;;;;;24.17;12.70;;;;;;;-2.19;65.09;96437.22;5088242;28;20868;-72
2022/01/16 06:52:46;;;;;;;23.40;12.45;;;;;;;-2.19;65.01;96430.16;5086880;28;20085;-73
2022/01/16 06:55:12;;;;;;;27.52;13.38;;;;;;;-2.15;65.33;96429.09;5089518;28;20544;-73
2022/01/16 06:57:37;;;;;;;26.13;12.05;;;;;;;-2.22;64.95;96432.09;5087516;28;20089;-75
2022/01/16 07:00:05;;;;;;;23.30;12.10;;;;;;;-2.13;65.42;96439.53;5088082;28;20082;-73
2022/01/16 07:02:30;;;;;;;23.48;11.55;;;;;;;-2.10;65.32;96436.78;5088788;28;20085;-73
2022/01/16 07:04:56;;;;;;;29.25;13.20;;;;;;;-2.09;65.13;96443.72;5086921;28;20028;-75
2022/01/16 07:07:21;;;;;;;26.80;12.75;;;;;;;-2.09;65.05;96448.13;5088292;28;20380;-73
2022/01/16 07:09:46;;;;;;;24.85;12.30;;;;;;;-2.09;65.53;96448.97;5086830;28;20089;-74
2022/01/16 07:12:12;;;;;;;21.08;12.25;;;;;;;-2.09;66.28;96454.22;5087533;28;20031;-74
2022/01/16 07:14:37;;;;;;;23.98;12.52;;;;;;;-1.97;65.62;96452.81;5068550;28;20032;-76
2022/01/16 07:17:03;;;;;;;22.13;12.27;;;;;;;-1.91;65.92;96455.13;5086982;28;20506;-74
2022/01/16 07:19:28;;;;;;;21.20;12.77;;;;;;;-1.94;65.33;96457.06;5087782;28;20457;-73
2022/01/16 07:21:54;;;;;;;20.63;11.73;;;;;;;-1.86;65.49;96457.53;5087342;28;20032;-77
2022/01/16 07:24:21;;;;;;;25.02;12.05;;;;;;;-1.71;64.70;96449.81;5088589;28;20051;-74
2022/01/16 07:26:47;;;;;;;23.63;12.45;;;;;;;-1.74;65.05;96458.69;5085039;28;20036;-73
2022/01/16 07:29:12;;;;;;;28.08;13.20;;;;;;;-1.62;65.45;96460.75;5088063;28;20572;-74
2022/01/16 07:31:38;;;;;;;27.23;13.20;;;;;;;-1.55;65.59;96458.66;5086054;28;20035;-73
2022/01/16 07:34:05;;;;;;;24.42;12.65;;;;;;;-1.47;65.35;96466.19;5086942;28;20055;-73
2022/01/16 07:36:30;;;;;;;40.60;20.27;;;;;;;-1.34;64.57;96457.66;5086908;28;20572;-74
2022/01/16 07:38:56;;;;;;;29.45;14.27;;;;;;;-1.25;64.51;96459.81;5086321;28;20115;-74
2022/01/16 07:41:21;;;;;;;25.58;13.27;;;;;;;-1.26;64.61;96460.75;5087907;28;20028;-74
2022/01/16 07:43:47;;;;;;;27.77;13.27;;;;;;;-1.34;64.66;96461.16;5086462;28;20054;-74
2022/01/16 07:46:12;;;;;;;26.60;13.60;;;;;;;-1.05;64.79;96471.13;5086539;28;20402;-73
2022/01/16 07:48:38;;;;;;;26.98;14.15;;;;;;;-0.87;63.80;96470.16;5085676;28;20441;-74
2022/01/16 07:51:04;;;;;;;23.10;13.32;;;;;;;-0.57;62.82;96463.34;5087786;28;20470;-75
2022/01/16 07:53:30;;;;;;;29.00;14.93;;;;;;;-0.49;62.39;96473.47;5086167;28;20028;-74
2022/01/16 07:55:55;;;;;;;27.42;14.32;;;;;;;-0.53;63.16;96471.91;5086713;28;20035;-74
2022/01/16 07:58:20;;;;;;;26.75;14.63;;;;;;;-0.48;62.80;96483.06;5086766;28;20039;-75
2022/01/16 08:00:46;;;;;;;27.48;14.02;;;;;;;-0.33;61.67;96472.63;5085434;28;20039;-72
2022/01/16 08:03:11;;;;;;;28.00;13.85;;;;;;;-0.19;61.71;96485.03;5087587;28;20024;-75
2022/01/16 08:05:37;;;;;;;26.60;14.45;;;;;;;0.03;61.50;96471.56;5086027;28;20028;-74
2022/01/16 08:08:03;;;;;;;26.85;15.45;;;;;;;0.37;60.66;96476.72;5087732;28;20024;-76
2022/01/16 08:10:28;;;;;;;27.40;14.20;;;;;;;0.69;59.40;96475.78;5084199;28;20032;-73
2022/01/16 08:12:54;;;;;;;27.08;15.35;;;;;;;0.65;59.03;96456.59;5086356;28;20050;-74
2022/01/16 08:15:19;;;;;;;26.63;14.20;;;;;;;0.72;58.81;96459.75;5085641;28;20498;-74
2022/01/16 08:17:45;;;;;;;26.17;13.90;;;;;;;0.87;58.39;96465.94;5085904;28;20023;-73
2022/01/16 08:20:10;;;;;;;23.52;14.23;;;;;;;1.16;58.95;96462.47;5067931;28;20031;-74
2022/01/16 08:22:36;;;;;;;26.48;13.80;;;;;;;1.27;58.23;96467.97;5085959;28;20035;-75
2022/01/16 08:25:03;;;;;;;27.40;14.63;;;;;;;1.25;58.09;96467.19;5087652;28;20048;-72
2022/01/16 08:27:28;;;;;;;26.88;15.43;;;;;;;1.26;58.37;96466.25;5085028;28;20040;-74
2022/01/16 08:29:54;;;;;;;31.27;14.35;;;;;;;1.32;58.39;96452.63;5087524;28;20490;-74
2022/01/16 08:32:19;;;;;;;25.15;13.30;;;;;;;1.37;58.79;96454.16;5085104;28;20027;-73
2022/01/16 08:34:45;;;;;;;23.10;13.75;;;;;;;1.46;58.70;96458.88;5070132;28;20043;-74
2022/01/16 08:37:10;;;;;;;23.63;13.90;;;;;;;1.52;58.47;96466.44;5086233;28;20028;-74
2022/01/16 08:39:35;;;;;;;22.92;14.50;;;;;;;1.61;58.19;96465.03;5085993;28;20306;-74
2022/01/16 08:42:01;;;;;;;24.48;15.82;;;;;;;1.91;57.33;96453.44;5087283;28;20028;-74
2022/01/16 08:44:26;;;;;;;30.73;15.68;;;;;;;1.97;57.80;96450.41;5083908;28;20024;-74
2022/01/16 08:46:52;;;;;;;25.20;14.45;;;;;;;2.00;57.92;96445.88;5087398;28;20027;-74
2022/01/16 08:49:17;;;;;;;16.08;9.93;;;;;;;2.14;56.97;96460.84;5066827;28;20058;-72
2022/01/16 08:51:43;;;;;;;17.23;10.23;;;;;;;2.32;56.13;96450.88;5087250;28;20048;-72
2022/01/16 08:54:08;;;;;;;16.10;8.60;;;;;;;2.45;54.83;96448.28;5085343;28;20020;-73
2022/01/16 08:56:33;;;;;;;15.93;9.15;;;;;;;2.52;54.76;96438.09;5086832;28;20023;-74
2022/01/16 08:58:59;;;;;;;14.20;8.23;;;;;;;2.72;54.38;96447.38;5086549;28;20024;-74
2022/01/16 09:01:24;;;;;;;13.95;8.50;;;;;;;2.75;53.92;96441.03;5084231;28;20024;-74
2022/01/16 09:03:50;;;;;;;13.68;8.13;;;;;;;2.83;53.79;96428.97;5087550;28;20012;-74
2022/01/16 09:06:16;;;;;;;18.95;9.02;;;;;;;2.79;54.71;96426.63;5085005;28;20016;-73
2022/01/16 09:08:41;;;;;;;14.90;9.15;;;;;;;2.81;54.24;96425.56;5086632;28;20570;-75
2022/01/16 09:11:07;;;;;;;12.45;7.95;;;;;;;2.93;53.47;96426.53;5084822;28;20024;-73
2022/01/16 09:13:33;;;;;;;12.65;7.80;;;;;;;2.89;53.19;96424.19;5086776;28;20077;-73
2022/01/16 09:15:58;;;;;;;15.30;7.88;;;;;;;2.94;52.99;96416.78;5088040;28;20028;-74
2022/01/16 09:18:24;;;;;;;13.02;8.30;;;;;;;2.96;52.94;96406.91;5086308;28;20028;-74
2022/01/16 09:20:49;;;;;;;12.38;7.10;;;;;;;2.95;52.82;96413.19;5086477;28;20028;-73
2022/01/16 09:23:15;;;;;;;13.60;7.93;;;;;;;2.89;52.96;96411.78;5084515;28;20093;-73
2022/01/16 09:25:40;;;;;;;13.23;7.53;;;;;;;2.90;53.12;96404.69;5085198;28;20024;-73
2022/01/16 09:28:06;;;;;;;12.00;7.80;;;;;;;2.89;53.30;96405.63;5084593;28;20044;-74
2022/01/16 09:30:32;;;;;;;12.60;7.47;;;;;;;2.88;53.86;96396.00;5088167;28;20032;-75
2022/01/16 09:32:57;;;;;;;13.75;8.40;;;;;;;2.89;53.56;96403.84;5070509;28;20498;-74
2022/01/16 09:35:23;;;;;;;12.32;7.70;;;;;;;3.00;52.94;96391.66;5090503;28;20442;-74
2022/01/16 09:37:48;;;;;;;12.93;7.68;;;;;;;3.00;53.03;96389.84;5088182;28;20031;-74
2022/01/16 09:40:16;;;;;;;13.73;7.40;;;;;;;3.11;52.65;96402.38;5089313;28;20047;-75
2022/01/16 09:42:42;;;;;;;12.77;7.75;;;;;;;3.09;52.74;96391.84;5072210;28;20028;-75
2022/01/16 09:45:10;;;;;;;14.48;7.75;;;;;;;3.14;52.77;96383.59;5086991;28;20097;-72
2022/01/16 09:47:36;;;;;;;11.57;7.85;;;;;;;3.20;52.49;96387.63;5088947;28;20032;-74
2022/01/16 09:50:04;;;;;;;15.35;8.98;;;;;;;3.19;52.82;96380.63;5086801;28;20522;-72
2022/01/16 09:52:31;;;;;;;15.55;8.88;;;;;;;3.08;53.15;96378.69;5090396;28;20027;-74
2022/01/16 09:54:56;;;;;;;12.48;8.10;;;;;;;3.19;52.80;96372.69;5088748;28;20071;-72
2022/01/16 09:57:22;;;;;;;22.73;11.70;;;;;;;3.25;52.91;96377.53;5089517;28;20043;-74
2022/01/16 09:59:47;;;;;;;13.68;9.07;;;;;;;3.31;52.63;96377.09;5090343;28;20035;-75
2022/01/16 10:02:13;;;;;;;13.52;8.82;;;;;;;3.29;53.01;96376.34;5088231;28;20028;-75
2022/01/16 10:04:40;;;;;;;14.23;8.00;;;;;;;3.34;52.44;96368.94;5088725;28;20415;-74
2022/01/16 10:07:12;;;;;;;14.95;8.55;;;;;;;3.31;53.18;96355.88;5070179;28;20063;-74
2022/01/16 10:09:39;;;;;;;16.50;9.27;;;;;;;3.32;53.00;96360.22;5090298;28;20418;-74
2022/01/16 10:12:13;;;;;;;12.25;8.57;;;;;;;3.39;52.30;96354.47;5087089;28;20024;-74
2022/01/16 10:14:47;;;;;;;12.45;7.88;;;;;;;3.29;53.01;96351.66;5072300;28;20130;-74
2022/01/16 10:17:20;;;;;;;12.15;7.93;;;;;;;3.23;52.85;96350.28;5089992;28;20028;-73
2022/01/16 10:19:56;;;;;;;13.35;8.50;;;;;;;3.29;52.99;96338.41;5069794;28;20036;-75
2022/01/16 10:22:21;;;;;;;13.85;8.25;;;;;;;3.28;52.89;96350.81;5088735;28;20081;-73
2022/01/16 10:24:46;;;;;;;13.10;9.07;;;;;;;3.32;53.05;96346.13;5087702;28;20032;-74
2022/01/16 10:27:14;;;;;;;13.38;9.05;;;;;;;3.30;53.47;96346.25;5088316;28;20031;-74
2022/01/16 10:29:51;;;;;;;12.68;8.50;;;;;;;3.39;52.88;96339.44;5088392;28;20032;-74
2022/01/16 10:32:23;;;;;;;13.88;8.93;;;;;;;3.44;52.52;96333.78;5087046;28;20494;-74
2022/01/16 10:34:51;;;;;;;14.43;8.52;;;;;;;3.43;52.80;96329.47;5089244;28;20031;-74
2022/01/16 10:37:30;;;;;;;14.27;9.07;;;;;;;3.34;52.59;96320.34;5087345;28;20119;-74
2022/01/16 10:40:02;;;;;;;13.63;8.30;;;;;;;3.42;53.21;96318.00;5071213;28;20437;-73
2022/01/16 10:42:29;;;;;;;13.65;8.52;;;;;;;3.45;52.94;96322.25;5086726;28;20043;-76
2022/01/16 10:45:02;;;;;;;14.50;9.77;;;;;;;3.60;53.08;96320.28;5070647;28;20459;-74
2022/01/16 10:47:54;;;;;;;17.17;10.10;;;;;;;3.64;52.77;96320.91;5089393;28;20027;-73
2022/01/16 10:50:21;;;;;;;14.18;8.65;;;;;;;3.72;51.58;96315.88;5087068;28;20043;-74
2022/01/16 10:52:54;;;;;;;10.77;7.47;;;;;;;3.71;51.63;96314.16;5087954;28;20040;-74
2022/01/16 10:55:22;;;;;;;16.63;10.82;;;;;;;3.66;52.28;96298.59;5087659;28;20028;-74
2022/01/16 10:57:47;;;;;;;16.17;10.18;;;;;;;3.66;53.04;96293.28;5088571;28;20040;-75
2022/01/16 11:00:23;;;;;;;13.82;8.85;;;;;;;3.74;52.11;96295.38;5088349;28;20418;-73
2022/01/16 11:02:50;;;;;;;16.38;10.75;;;;;;;3.85;52.10;96293.75;5087007;28;20529;-73
2022/01/16 11:05:20;;;;;;;16.63;10.20;;;;;;;3.89;51.63;96290.75;5087451;28;20031;-73
2022/01/16 11:07:45;;;;;;;17.17;9.93;;;;;;;3.95;51.71;96290.28;5086575;28;20134;-73
2022/01/16 11:10:26;;;;;;;16.80;9.35;;;;;;;4.02;51.29;96293.34;5088831;28;20025;-74
2022/01/16 11:12:53;;;;;;;15.98;9.18;;;;;;;3.99;51.59;96288.25;5087779;28;20042;-75
2022/01/16 11:15:18;;;;;;;14.30;8.38;;;;;;;4.11;51.00;96280.34;5087415;28;20031;-74
2022/01/16 11:17:44;;;;;;;11.95;8.38;;;;;;;4.14;50.35;96274.78;5089076;28;20020;-75
2022/01/16 11:20:10;;;;;;;12.88;8.60;;;;;;;4.09;50.12;96280.44;5086152;28;20028;-75
2022/01/16 11:22:55;;;;;;;12.48;7.90;;;;;;;4.13;50.74;96279.25;5088707;28;20078;-74
2022/01/16 11:25:30;;;;;;;13.40;8.45;;;;;;;4.27;51.04;96272.88;5070789;28;20110;-73
2022/01/16 11:27:56;;;;;;;13.77;8.15;;;;;;;4.43;50.27;96269.91;5088073;28;20071;-73
2022/01/16 11:30:22;;;;;;;14.30;9.38;;;;;;;4.46;49.56;96268.84;5086623;28;20054;-73
2022/01/16 11:32:47;;;;;;;14.25;9.10;;;;;;;4.55;49.37;96262.81;5085572;28;20478;-74
2022/01/16 11:35:13;;;;;;;9.90;7.43;;;;;;;4.66;49.26;96255.81;5086706;28;20024;-73
2022/01/16 11:37:38;;;;;;;14.60;8.18;;;;;;;4.76;49.25;96256.78;5084912;28;20028;-73
2022/01/16 11:40:35;;;;;;;13.90;8.68;;;;;;;4.78;48.57;96246.88;5069896;28;20035;-75
2022/01/16 11:43:35;;;;;;;14.70;8.88;;;;;;;4.91;48.88;96253.88;5086826;28;20039;-74
2022/01/16 11:46:20;;;;;;;12.95;8.77;;;;;;;5.02;48.66;96251.22;5086220;28;20103;-74
2022/01/16 11:48:47;;;;;;;14.32;8.85;;;;;;;5.07;47.84;96254.38;5086777;28;20028;-75
2022/01/16 11:54:13;;;;;;;18.50;9.73;;;;;;;5.17;48.71;96243.84;5087020;28;20032;-74
2022/01/16 11:56:41;;;;;;;17.85;10.30;;;;;;;5.24;48.09;96252.16;5087959;28;20040;-74
2022/01/16 11:59:12;;;;;;;14.52;10.00;;;;;;;5.43;48.03;96242.69;5085819;28;20035;-73
2022/01/16 12:01:58;;;;;;;16.02;10.07;;;;;;;5.42;48.38;96247.16;5087847;28;20051;-73
2022/01/16 12:04:29;;;;;;;15.85;9.85;;;;;;;5.41;48.46;96236.66;5084421;28;20530;-72